createdAt,value
2023-02-12T00:00:48.033Z,52.58
2023-02-12T00:03:14.752Z,53.15
2023-02-12T00:05:41.861Z,53.25
2023-02-12T00:08:11.302Z,52.56
2023-02-12T00:10:43.204Z,53.13
2023-02-12T00:13:11.330Z,52.88
2023-02-12T00:15:43.106Z,53.12
2023-02-12T00:18:10.407Z,54.21
2023-02-12T00:20:38.009Z,52.42
2023-02-12T00:23:05.455Z,52.73
2023-02-12T00:25:32.408Z,53.31
2023-02-12T00:27:59.110Z,52.96
2023-02-12T00:30:25.935Z,52.99
2023-02-12T00:32:52.554Z,53.64
2023-02-12T00:35:19.156Z,53.10
2023-02-12T00:37:45.700Z,53.36
2023-02-12T00:40:12.743Z,53.21
2023-02-12T00:42:39.372Z,53.99
2023-02-12T00:45:06.248Z,52.19
2023-02-12T00:47:32.858Z,54.87
2023-02-12T00:49:59.850Z,53.43
2023-02-12T00:52:26.434Z,54.27
2023-02-12T00:54:53.040Z,54.20
2023-02-12T00:57:19.622Z,54.99
2023-02-12T00:59:46.175Z,53.72
2023-02-12T01:02:12.833Z,52.92
2023-02-12T01:04:39.464Z,53.25
2023-02-12T01:07:06.077Z,53.14
2023-02-12T01:09:32.794Z,53.01
2023-02-12T01:11:59.413Z,53.45
2023-02-12T01:14:26.013Z,53.28
2023-02-12T01:16:52.588Z,53.82
2023-02-12T01:19:19.170Z,54.00
2023-02-12T01:21:45.810Z,54.12
2023-02-12T01:24:12.485Z,54.49
2023-02-12T01:26:39.126Z,55.18
2023-02-12T01:29:07.636Z,56.19
2023-02-12T01:31:38.542Z,56.41
2023-02-12T01:34:06.820Z,56.83
2023-02-12T01:36:33.835Z,57.34
2023-02-12T01:39:02.811Z,57.67
2023-02-12T01:41:33.483Z,58.24
2023-02-12T01:44:19.681Z,59.02
2023-02-12T01:46:48.951Z,59.17
2023-02-12T01:49:29.410Z,60.10
2023-02-12T01:52:02.735Z,60.53
2023-02-12T01:54:30.003Z,62.92
2023-02-12T01:56:56.791Z,61.61
2023-02-12T01:59:24.584Z,63.19
2023-02-12T02:01:51.305Z,63.37
2023-02-12T02:04:23.696Z,65.39
2023-02-12T02:06:58.395Z,66.38
2023-02-12T02:09:26.409Z,66.44
2023-02-12T02:12:11.686Z,67.27
2023-02-12T02:14:40.249Z,68.24
2023-02-12T02:17:28.042Z,71.27
2023-02-12T02:20:28.385Z,71.30
2023-02-12T02:23:07.309Z,69.41
2023-02-12T02:25:57.481Z,69.89
2023-02-12T02:29:04.736Z,70.56
2023-02-12T02:31:37.472Z,71.17
2023-02-12T02:34:10.509Z,70.90
2023-02-12T02:37:19.619Z,70.46
2023-02-12T02:39:46.264Z,71.86
2023-02-12T02:42:37.569Z,70.88
2023-02-12T02:45:10.064Z,69.61
2023-02-12T02:48:15.859Z,69.39
2023-02-12T02:50:47.741Z,68.60
2023-02-12T02:53:29.853Z,69.53
2023-02-12T02:56:01.559Z,68.46
2023-02-12T02:58:35.831Z,68.10
2023-02-12T03:01:21.197Z,68.12
2023-02-12T03:03:59.066Z,77.15
2023-02-12T03:06:47.089Z,68.64
2023-02-12T03:09:34.868Z,75.12
2023-02-12T03:12:06.319Z,71.56
2023-02-12T03:14:39.592Z,65.40
2023-02-12T03:17:13.926Z,66.82
2023-02-12T03:19:46.745Z,64.25
2023-02-12T03:22:23.292Z,61.83
2023-02-12T03:24:54.251Z,61.22
2023-02-12T03:27:33.849Z,59.33
2023-02-12T03:30:01.660Z,58.69
2023-02-12T03:32:28.323Z,58.34
2023-02-12T03:35:25.426Z,59.79
2023-02-12T03:38:07.421Z,58.43
2023-02-12T03:40:51.201Z,57.85
2023-02-12T03:43:28.493Z,57.59
2023-02-12T03:46:04.645Z,57.01
2023-02-12T03:48:44.076Z,58.06
2023-02-12T03:51:29.169Z,58.13
2023-02-12T03:53:57.544Z,57.53
2023-02-12T03:56:37.816Z,58.86
2023-02-12T03:59:05.603Z,58.84
2023-02-12T04:01:34.118Z,59.54
2023-02-12T04:04:05.507Z,60.16
2023-02-12T04:06:32.252Z,60.70
2023-02-12T04:09:03.475Z,61.66
2023-02-12T04:11:44.104Z,61.60
2023-02-12T04:14:14.426Z,61.37
2023-02-12T04:16:51.920Z,62.18
2023-02-12T04:19:28.002Z,63.22
2023-02-12T04:22:36.296Z,61.56
2023-02-12T04:25:15.011Z,62.57
2023-02-12T04:27:52.506Z,64.97
2023-02-12T04:30:29.115Z,63.00
2023-02-12T04:33:02.073Z,61.06
2023-02-12T04:35:36.505Z,59.92
2023-02-12T04:38:06.149Z,59.12
2023-02-12T04:40:33.100Z,61.73
2023-02-12T04:42:59.834Z,60.63
2023-02-12T04:45:29.690Z,59.25
2023-02-12T04:47:57.081Z,58.92
2023-02-12T04:50:23.899Z,59.09
2023-02-12T04:52:51.857Z,57.90
2023-02-12T04:55:19.166Z,58.23
2023-02-12T04:57:45.930Z,58.55
2023-02-12T05:00:15.043Z,59.33
2023-02-12T05:02:41.870Z,59.38
2023-02-12T05:05:08.718Z,59.56
2023-02-12T05:07:35.542Z,58.42
2023-02-12T05:10:02.322Z,58.92
2023-02-12T05:12:28.984Z,60.21
2023-02-12T05:14:55.791Z,59.83
2023-02-12T05:17:23.761Z,59.39
2023-02-12T05:19:50.596Z,59.33
2023-02-12T05:22:17.980Z,57.59
2023-02-12T05:24:44.848Z,57.64
2023-02-12T05:27:11.602Z,58.86
2023-02-12T05:29:38.393Z,59.69
2023-02-12T05:32:06.938Z,60.00
2023-02-12T05:34:34.416Z,60.52
2023-02-12T05:37:01.082Z,61.12
2023-02-12T05:39:27.806Z,62.87
2023-02-12T05:41:54.622Z,63.17
2023-02-12T05:44:21.358Z,66.76
2023-02-12T05:46:48.114Z,68.51
2023-02-12T05:49:14.838Z,70.65
2023-02-12T05:51:42.046Z,73.77
2023-02-12T05:54:08.863Z,78.59
2023-02-12T05:56:38.057Z,83.06
2023-02-12T05:59:12.489Z,88.18
2023-02-12T06:01:43.117Z,89.90
2023-02-12T06:04:24.599Z,90.82
2023-02-12T06:06:52.776Z,89.88
2023-02-12T06:09:19.779Z,91.47
2023-02-12T06:11:46.399Z,94.29
2023-02-12T06:14:16.016Z,94.28
2023-02-12T06:16:46.754Z,97.00
2023-02-12T06:19:13.487Z,100.00
2023-02-12T06:21:40.715Z,100.00
2023-02-12T06:24:07.604Z,100.00
2023-02-12T06:26:34.279Z,100.00
2023-02-12T06:29:01.694Z,100.00
2023-02-12T06:31:33.766Z,100.00
2023-02-12T06:34:02.816Z,100.00
2023-02-12T06:36:30.169Z,100.00
2023-02-12T06:38:56.953Z,100.00
2023-02-12T06:41:24.377Z,100.00
2023-02-12T06:43:51.422Z,100.00
2023-02-12T06:46:18.234Z,100.00
2023-02-12T06:48:45.306Z,100.00
2023-02-12T06:51:15.130Z,100.00
2023-02-12T06:53:42.176Z,100.00
2023-02-12T06:56:13.686Z,100.00
2023-02-12T06:58:42.176Z,100.00
2023-02-12T07:01:13.468Z,100.00
2023-02-12T07:03:42.180Z,100.00
2023-02-12T07:06:11.897Z,100.00
2023-02-12T07:08:38.998Z,100.00
2023-02-12T07:11:06.245Z,100.00
2023-02-12T07:13:35.042Z,100.00
2023-02-12T07:16:09.502Z,100.00
2023-02-12T07:18:37.315Z,100.00
2023-02-12T07:21:05.861Z,100.00
2023-02-12T07:23:33.364Z,100.00
2023-02-12T07:26:13.533Z,100.00
2023-02-12T07:28:43.961Z,100.00
2023-02-12T07:31:15.097Z,100.00
2023-02-12T07:33:42.919Z,100.00
2023-02-12T07:36:13.170Z,100.00
2023-02-12T07:38:40.196Z,100.00
2023-02-12T07:41:12.506Z,100.00
2023-02-12T07:43:44.367Z,100.00
2023-02-12T07:46:20.660Z,100.00
2023-02-12T07:48:48.228Z,100.00
2023-02-12T07:51:19.410Z,100.00
2023-02-12T07:53:47.038Z,100.00
2023-02-12T07:56:25.611Z,100.00
2023-02-12T07:58:53.601Z,100.00
2023-02-12T08:01:21.755Z,100.00
2023-02-12T08:03:50.731Z,100.00
2023-02-12T08:06:20.370Z,100.00
2023-02-12T08:08:47.908Z,100.00
2023-02-12T08:11:15.854Z,100.00
2023-02-12T08:13:42.885Z,100.00
2023-02-12T08:16:15.825Z,100.00
2023-02-12T08:18:43.511Z,100.00
2023-02-12T08:21:16.525Z,100.00
2023-02-12T08:23:43.090Z,100.00
2023-02-12T08:26:14.176Z,100.00
2023-02-12T08:28:46.652Z,100.00
2023-02-12T08:31:17.290Z,100.00
2023-02-12T08:33:45.690Z,100.00
2023-02-12T08:36:15.616Z,100.00
2023-02-12T08:38:47.024Z,100.00
2023-02-12T08:41:22.345Z,100.00
2023-02-12T08:43:50.000Z,100.00
2023-02-12T08:46:21.858Z,100.00
2023-02-12T08:48:48.595Z,100.00
2023-02-12T08:51:20.640Z,100.00
2023-02-12T08:53:51.477Z,100.00
2023-02-12T08:56:18.888Z,100.00
2023-02-12T08:58:48.795Z,100.00
2023-02-12T09:01:26.194Z,100.00
2023-02-12T09:03:56.623Z,100.00
2023-02-12T09:06:25.300Z,100.00
2023-02-12T09:08:55.868Z,100.00
2023-02-12T09:11:26.709Z,100.00
2023-02-12T09:13:56.020Z,100.00
2023-02-12T09:16:22.795Z,100.00
2023-02-12T09:18:49.398Z,100.00
2023-02-12T09:21:22.191Z,100.00
2023-02-12T09:23:49.422Z,100.00
2023-02-12T09:26:20.857Z,100.00
2023-02-12T09:28:49.835Z,100.00
2023-02-12T09:31:21.058Z,100.00
2023-02-12T09:33:51.693Z,100.00
2023-02-12T09:36:21.032Z,100.00
2023-02-12T09:38:48.843Z,100.00
2023-02-12T09:41:52.840Z,100.00
2023-02-12T09:44:28.668Z,100.00
2023-02-12T09:47:15.463Z,100.00
2023-02-12T09:49:48.822Z,100.00
2023-02-12T09:52:22.499Z,100.00
2023-02-12T09:54:50.404Z,100.00
2023-02-12T09:57:34.645Z,100.00
2023-02-12T10:00:24.925Z,100.00
2023-02-12T10:02:53.802Z,100.00
2023-02-12T10:05:27.196Z,100.00
2023-02-12T10:08:06.023Z,100.00
2023-02-12T10:10:52.561Z,100.00
2023-02-12T10:13:26.518Z,100.00
2023-02-12T10:16:16.941Z,100.00
2023-02-12T10:18:52.527Z,100.00
2023-02-12T10:21:46.354Z,100.00
2023-02-12T10:24:18.946Z,100.00
2023-02-12T10:26:53.141Z,100.00
2023-02-12T10:29:26.062Z,100.00
2023-02-12T10:32:00.707Z,97.91
2023-02-12T10:34:33.496Z,95.47
2023-02-12T10:37:10.436Z,93.98
2023-02-12T10:39:42.593Z,94.61
2023-02-12T10:42:18.534Z,95.00
2023-02-12T10:44:46.160Z,94.99
2023-02-12T10:47:20.724Z,95.58
2023-02-12T10:49:55.969Z,94.85
2023-02-12T10:52:37.876Z,91.86
2023-02-12T10:55:24.868Z,91.42
2023-02-12T10:57:51.973Z,91.65
2023-02-12T11:00:26.396Z,91.21
2023-02-12T11:03:06.790Z,88.31
2023-02-12T11:05:36.180Z,90.60
2023-02-12T11:08:04.645Z,92.99
2023-02-12T11:10:40.365Z,94.27
2023-02-12T11:13:22.474Z,89.35
2023-02-12T11:15:49.769Z,90.27
2023-02-12T11:18:33.055Z,85.06
2023-02-12T11:21:05.323Z,79.50
2023-02-12T11:23:33.338Z,76.59
2023-02-12T11:26:04.770Z,76.96
2023-02-12T11:28:35.208Z,75.57
2023-02-12T11:31:10.596Z,76.91
2023-02-12T11:33:38.989Z,74.67
2023-02-12T11:36:17.267Z,77.32
2023-02-12T11:38:55.906Z,81.27
2023-02-12T11:41:22.549Z,84.11
2023-02-12T11:43:50.889Z,82.13
2023-02-12T11:46:25.758Z,82.18
2023-02-12T11:48:55.572Z,81.26
2023-02-12T11:51:26.656Z,80.37
2023-02-12T11:53:56.325Z,80.28
2023-02-12T11:56:23.046Z,80.10
2023-02-12T11:58:53.314Z,80.90
2023-02-12T12:01:30.096Z,79.42
2023-02-12T12:04:05.620Z,78.75
2023-02-12T12:06:38.263Z,78.20
2023-02-12T12:09:16.862Z,78.03
2023-02-12T12:12:10.525Z,76.73
2023-02-12T12:15:04.363Z,76.47
2023-02-12T12:18:08.723Z,77.91
2023-02-12T12:20:47.521Z,79.43
2023-02-12T12:23:40.416Z,80.14
2023-02-12T12:26:13.706Z,78.84
2023-02-12T12:29:02.430Z,80.46
2023-02-12T12:31:53.899Z,80.83
2023-02-12T12:34:23.896Z,80.63
2023-02-12T12:37:05.464Z,81.44
2023-02-12T12:40:02.872Z,79.81
2023-02-12T12:42:29.525Z,78.97
2023-02-12T12:45:06.081Z,79.51
2023-02-12T12:47:53.583Z,80.00
2023-02-12T12:50:29.413Z,79.87
2023-02-12T12:52:55.948Z,80.97
2023-02-12T12:55:49.098Z,82.43
2023-02-12T12:58:18.830Z,82.45
2023-02-12T13:01:03.944Z,78.20
2023-02-12T13:04:05.708Z,75.36
2023-02-12T13:06:59.644Z,76.12
2023-02-12T13:09:38.501Z,77.77
2023-02-12T13:12:14.336Z,77.16
2023-02-12T13:14:43.751Z,78.89
2023-02-12T13:17:59.108Z,78.84
2023-02-12T13:20:31.726Z,81.02
2023-02-12T13:23:24.558Z,77.77
2023-02-12T13:25:57.591Z,75.97
2023-02-12T13:28:49.271Z,75.48
2023-02-12T13:31:32.881Z,78.14
2023-02-12T13:34:05.029Z,76.41
2023-02-12T13:36:34.872Z,74.84
2023-02-12T13:39:18.893Z,76.25
2023-02-12T13:41:57.326Z,75.71
2023-02-12T13:44:37.054Z,75.26
2023-02-12T13:47:12.128Z,76.90
2023-02-12T13:49:48.240Z,78.01
2023-02-12T13:52:36.415Z,79.76
2023-02-12T13:55:29.151Z,80.70
2023-02-12T13:58:14.467Z,79.41
2023-02-12T14:00:50.156Z,81.71
2023-02-12T14:03:16.966Z,81.23
2023-02-12T14:05:43.814Z,84.12
2023-02-12T14:08:34.822Z,81.54
2023-02-12T14:11:12.295Z,81.67
2023-02-12T14:13:56.644Z,83.62
2023-02-12T14:16:43.531Z,81.72
2023-02-12T14:19:51.218Z,83.19
2023-02-12T14:22:26.718Z,86.43
2023-02-12T14:24:55.632Z,87.01
2023-02-12T14:27:31.324Z,86.64
2023-02-12T14:30:07.176Z,89.57
2023-02-12T14:32:53.509Z,89.36
2023-02-12T14:35:36.697Z,90.10
2023-02-12T14:38:24.604Z,90.66
2023-02-12T14:40:53.648Z,91.97
2023-02-12T14:43:55.347Z,94.61
2023-02-12T14:46:26.225Z,98.24
2023-02-12T14:49:05.604Z,97.83
2023-02-12T14:52:35.449Z,99.79
2023-02-12T14:55:06.534Z,98.32
2023-02-12T14:57:40.085Z,99.73
2023-02-12T15:00:18.840Z,99.60
2023-02-12T15:02:51.468Z,100.00
2023-02-12T15:05:47.767Z,100.00
2023-02-12T15:08:40.194Z,100.00
2023-02-12T15:11:19.543Z,100.00
2023-02-12T15:13:57.119Z,100.00
2023-02-12T15:16:43.060Z,100.00
2023-02-12T15:19:37.415Z,100.00
2023-02-12T15:22:04.129Z,100.00
2023-02-12T15:24:30.757Z,100.00
2023-02-12T15:26:59.660Z,100.00
2023-02-12T15:29:33.453Z,100.00
2023-02-12T15:32:04.289Z,100.00
2023-02-12T15:34:33.805Z,100.00
2023-02-12T15:37:03.064Z,100.00
2023-02-12T15:39:57.691Z,100.00
2023-02-12T15:42:36.019Z,100.00
2023-02-12T15:45:08.205Z,100.00
2023-02-12T15:47:38.264Z,100.00
2023-02-12T15:50:05.475Z,100.00
2023-02-12T15:52:38.874Z,100.00
2023-02-12T15:55:06.652Z,100.00
2023-02-12T15:57:33.674Z,100.00
2023-02-12T16:00:11.286Z,100.00
2023-02-12T16:02:37.908Z,100.00
2023-02-12T16:05:05.829Z,100.00
2023-02-12T16:07:38.011Z,100.00
2023-02-12T16:10:06.355Z,100.00
2023-02-12T16:12:37.741Z,100.00
2023-02-12T16:15:05.509Z,100.00
2023-02-12T16:17:34.935Z,100.00
2023-02-12T16:20:04.502Z,100.00
2023-02-12T16:22:36.935Z,100.00
2023-02-12T16:25:13.412Z,100.00
2023-02-12T16:27:40.529Z,100.00
2023-02-12T16:30:33.144Z,100.00
2023-02-12T16:33:00.467Z,100.00
2023-02-12T16:35:32.977Z,100.00
2023-02-12T16:38:11.638Z,100.00
2023-02-12T16:40:40.088Z,100.00
2023-02-12T16:43:29.865Z,100.00
2023-02-12T16:46:05.191Z,100.00
2023-02-12T16:48:38.389Z,100.00
2023-02-12T16:51:06.367Z,100.00
2023-02-12T16:53:36.836Z,100.00
2023-02-12T16:56:05.616Z,100.00
2023-02-12T16:58:32.361Z,100.00
2023-02-12T17:01:02.613Z,100.00
2023-02-12T17:03:29.512Z,100.00
2023-02-12T17:05:56.699Z,100.00
2023-02-12T17:08:25.051Z,100.00
2023-02-12T17:10:52.517Z,100.00
2023-02-12T17:13:20.943Z,100.00
2023-02-12T17:15:54.600Z,100.00
2023-02-12T17:18:22.318Z,100.00
2023-02-12T17:20:56.465Z,100.00
2023-02-12T17:23:23.727Z,100.00
2023-02-12T17:25:50.599Z,100.00
2023-02-12T17:28:17.635Z,100.00
2023-02-12T17:30:47.363Z,100.00
2023-02-12T17:33:14.098Z,100.00
2023-02-12T17:35:40.937Z,100.00
2023-02-12T17:38:07.941Z,100.00
2023-02-12T17:40:38.548Z,100.00
2023-02-12T17:43:06.137Z,100.00
2023-02-12T17:45:33.130Z,100.00
2023-02-12T17:47:59.782Z,100.00
2023-02-12T17:50:26.835Z,100.00
2023-02-12T17:52:53.469Z,100.00
2023-02-12T17:55:25.154Z,100.00
2023-02-12T17:57:53.745Z,100.00
2023-02-12T18:00:24.228Z,100.00
2023-02-12T18:02:52.211Z,100.00
2023-02-12T18:05:21.729Z,100.00
2023-02-12T18:07:48.403Z,100.00
2023-02-12T18:10:15.532Z,100.00
2023-02-12T18:12:42.406Z,100.00
2023-02-12T18:15:10.124Z,100.00
2023-02-12T18:17:37.638Z,100.00
2023-02-12T18:20:04.688Z,100.00
2023-02-12T18:22:33.320Z,100.00
2023-02-12T18:24:59.935Z,100.00
2023-02-12T18:27:26.681Z,100.00
2023-02-12T18:29:53.488Z,100.00
2023-02-12T18:32:20.140Z,100.00
2023-02-12T18:34:46.805Z,100.00
2023-02-12T18:37:14.209Z,100.00
2023-02-12T18:39:41.192Z,100.00
2023-02-12T18:42:11.037Z,100.00
2023-02-12T18:44:37.876Z,100.00
2023-02-12T18:47:04.724Z,100.00
2023-02-12T18:49:31.535Z,100.00
2023-02-12T18:51:58.524Z,100.00
2023-02-12T18:54:25.201Z,100.00
2023-02-12T18:56:53.499Z,100.00
2023-02-12T18:59:21.113Z,100.00
2023-02-12T19:01:50.540Z,100.00
2023-02-12T19:04:19.617Z,100.00
2023-02-12T19:06:50.396Z,100.00
2023-02-12T19:09:20.276Z,100.00
2023-02-12T19:11:48.741Z,100.00
2023-02-12T19:14:17.034Z,100.00
2023-02-12T19:16:45.162Z,100.00
2023-02-12T19:19:13.228Z,100.00
2023-02-12T19:21:43.072Z,100.00
2023-02-12T19:24:12.377Z,100.00
2023-02-12T19:26:40.018Z,100.00
2023-02-12T19:29:07.418Z,100.00
2023-02-12T19:31:37.039Z,100.00
2023-02-12T19:34:14.630Z,100.00
2023-02-12T19:36:41.594Z,100.00
2023-02-12T19:39:08.790Z,100.00
2023-02-12T19:41:41.089Z,100.00
2023-02-12T19:44:18.892Z,100.00
2023-02-12T19:46:46.852Z,100.00
2023-02-12T19:49:16.968Z,100.00
2023-02-12T19:51:44.366Z,100.00
2023-02-12T19:54:13.254Z,100.00
2023-02-12T19:56:40.598Z,100.00
2023-02-12T19:59:07.965Z,100.00
2023-02-12T20:01:35.196Z,100.00
2023-02-12T20:04:02.941Z,100.00
2023-02-12T20:06:33.277Z,100.00
2023-02-12T20:08:59.936Z,100.00
2023-02-12T20:11:31.368Z,100.00
2023-02-12T20:13:58.481Z,100.00
2023-02-12T20:16:34.313Z,100.00
2023-02-12T20:19:05.788Z,100.00
2023-02-12T20:21:32.825Z,100.00
2023-02-12T20:24:01.777Z,100.00
2023-02-12T20:26:32.339Z,100.00
2023-02-12T20:29:01.646Z,100.00
2023-02-12T20:31:32.547Z,100.00
2023-02-12T20:34:02.260Z,100.00
2023-02-12T20:36:34.469Z,100.00
2023-02-12T20:39:01.402Z,100.00
2023-02-12T20:41:28.834Z,100.00
2023-02-12T20:43:59.494Z,100.00
2023-02-12T20:46:26.959Z,100.00
2023-02-12T20:48:55.123Z,100.00
2023-02-12T20:51:27.912Z,100.00
2023-02-12T20:53:55.550Z,100.00
2023-02-12T20:56:27.623Z,100.00
2023-02-12T20:58:56.887Z,100.00
2023-02-12T21:01:34.727Z,100.00
2023-02-12T21:04:05.331Z,100.00
2023-02-12T21:06:31.986Z,100.00
2023-02-12T21:08:58.634Z,100.00
2023-02-12T21:11:29.213Z,100.00
2023-02-12T21:14:12.437Z,100.00
2023-02-12T21:16:48.735Z,100.00
2023-02-12T21:19:16.257Z,100.00
2023-02-12T21:21:47.083Z,100.00
2023-02-12T21:24:17.151Z,100.00
2023-02-12T21:26:44.227Z,100.00
2023-02-12T21:29:11.151Z,100.00
2023-02-12T21:31:45.811Z,100.00
2023-02-12T21:34:21.328Z,100.00
2023-02-12T21:36:49.011Z,100.00
2023-02-12T21:39:24.686Z,100.00
2023-02-12T21:41:53.914Z,100.00
2023-02-12T21:44:21.771Z,100.00
2023-02-12T21:46:48.446Z,100.00
2023-02-12T21:49:24.861Z,100.00
2023-02-12T21:51:54.511Z,100.00
2023-02-12T21:54:21.336Z,100.00
2023-02-12T21:56:49.701Z,100.00
2023-02-12T21:59:16.870Z,100.00
2023-02-12T22:01:55.257Z,100.00
2023-02-12T22:04:22.109Z,100.00
2023-02-12T22:06:51.094Z,100.00
2023-02-12T22:09:19.617Z,100.00
2023-02-12T22:11:46.456Z,100.00
2023-02-12T22:14:15.312Z,100.00
2023-02-12T22:16:42.679Z,100.00
2023-02-12T22:19:09.715Z,100.00
2023-02-12T22:21:39.537Z,100.00
2023-02-12T22:24:10.766Z,100.00
2023-02-12T22:26:37.468Z,100.00
2023-02-12T22:29:08.058Z,100.00
2023-02-12T22:31:37.098Z,100.00
2023-02-12T22:34:06.739Z,100.00
2023-02-12T22:36:36.152Z,100.00
2023-02-12T22:39:03.675Z,100.00
2023-02-12T22:41:30.451Z,100.00
2023-02-12T22:44:00.298Z,100.00
2023-02-12T22:46:27.792Z,100.00
2023-02-12T22:48:54.521Z,100.00
2023-02-12T22:51:25.518Z,100.00
2023-02-12T22:53:52.603Z,100.00
2023-02-12T22:56:19.560Z,100.00
2023-02-12T22:58:46.389Z,100.00
2023-02-12T23:01:18.322Z,100.00
2023-02-12T23:03:46.348Z,100.00
2023-02-12T23:06:18.757Z,100.00
2023-02-12T23:08:48.583Z,100.00
2023-02-12T23:11:15.246Z,100.00
2023-02-12T23:13:42.010Z,100.00
2023-02-12T23:16:08.705Z,100.00
2023-02-12T23:18:35.441Z,100.00
2023-02-12T23:21:02.387Z,100.00
2023-02-12T23:23:29.043Z,100.00
2023-02-12T23:25:56.381Z,100.00
2023-02-12T23:28:23.679Z,100.00
2023-02-12T23:30:51.858Z,100.00
2023-02-12T23:33:19.923Z,100.00
2023-02-12T23:35:48.104Z,100.00
2023-02-12T23:38:15.503Z,100.00
2023-02-12T23:40:42.902Z,100.00
2023-02-12T23:43:09.576Z,100.00
2023-02-12T23:45:36.197Z,100.00
2023-02-12T23:48:02.921Z,100.00
2023-02-12T23:50:29.646Z,100.00
2023-02-12T23:52:56.396Z,100.00
2023-02-12T23:55:23.106Z,100.00
2023-02-12T23:57:50.499Z,100.00
